createdAt,value
2023-03-13T00:01:35.284Z,98322.13
2023-03-13T00:04:06.089Z,98317.72
2023-03-13T00:06:36.753Z,98316.22
2023-03-13T00:09:06.770Z,98317.19
2023-03-13T00:11:36.615Z,98313.25
2023-03-13T00:14:06.826Z,98308.09
2023-03-13T00:16:43.437Z,98301.34
2023-03-13T00:19:11.815Z,98296.47
2023-03-13T00:21:41.470Z,98295.53
2023-03-13T00:24:12.567Z,98288.91
2023-03-13T00:26:42.501Z,98280.78
2023-03-13T00:29:10.687Z,98277.00
2023-03-13T00:31:41.811Z,98277.94
2023-03-13T00:34:11.101Z,98276.00
2023-03-13T00:36:39.775Z,98277.63
2023-03-13T00:39:10.065Z,98278.13
2023-03-13T00:41:39.343Z,98270.22
2023-03-13T00:44:09.625Z,98255.56
2023-03-13T00:46:39.398Z,98254.50
2023-03-13T00:49:11.142Z,98250.50
2023-03-13T00:51:39.720Z,98245.13
2023-03-13T00:54:08.106Z,98240.06
2023-03-13T00:56:37.292Z,98234.47
2023-03-13T00:59:06.165Z,98233.00
2023-03-13T01:01:37.596Z,98232.44
2023-03-13T01:04:08.139Z,98226.00
2023-03-13T01:06:38.221Z,98224.44
2023-03-13T01:09:08.289Z,98213.47
2023-03-13T01:11:39.721Z,98211.25
2023-03-13T01:14:10.347Z,98206.06
2023-03-13T01:16:41.266Z,98194.25
2023-03-13T01:19:14.062Z,98182.03
2023-03-13T01:21:42.707Z,98182.56
2023-03-13T01:24:11.354Z,98172.44
2023-03-13T01:26:43.054Z,98165.13
2023-03-13T01:29:11.336Z,98153.97
2023-03-13T01:31:41.516Z,98163.13
2023-03-13T01:34:12.583Z,98153.41
2023-03-13T01:36:40.636Z,98157.53
2023-03-13T01:39:09.922Z,98152.91
2023-03-13T01:41:39.703Z,98153.28
2023-03-13T01:44:08.426Z,98140.56
2023-03-13T01:46:36.752Z,98143.94
2023-03-13T01:49:09.302Z,98146.56
2023-03-13T01:51:42.104Z,98120.19
2023-03-13T01:54:12.899Z,98128.63
2023-03-13T01:56:45.462Z,98124.28
2023-03-13T01:59:16.717Z,98109.88
2023-03-13T02:01:47.315Z,98111.53
2023-03-13T02:04:19.617Z,98106.59
2023-03-13T02:06:52.135Z,98109.88
2023-03-13T02:09:24.358Z,98110.06
2023-03-13T02:11:58.903Z,98095.31
2023-03-13T02:14:32.075Z,98097.72
2023-03-13T02:17:00.581Z,98094.22
2023-03-13T02:19:39.558Z,98097.50
2023-03-13T02:22:14.569Z,98091.38
2023-03-13T02:24:49.185Z,98092.09
2023-03-13T02:27:20.502Z,98095.69
2023-03-13T02:29:50.195Z,98081.97
2023-03-13T02:32:18.876Z,98082.19
2023-03-13T02:34:51.427Z,98076.31
2023-03-13T02:37:22.107Z,98081.16
2023-03-13T02:39:52.991Z,98073.66
2023-03-13T02:42:24.706Z,98073.13
2023-03-13T02:44:53.478Z,98078.34
2023-03-13T02:47:24.413Z,98089.13
2023-03-13T02:49:53.182Z,98084.78
2023-03-13T02:52:25.840Z,98082.78
2023-03-13T02:54:59.295Z,98073.53
2023-03-13T02:57:29.424Z,98066.88
2023-03-13T02:59:57.853Z,98064.25
2023-03-13T03:02:26.170Z,98067.22
2023-03-13T03:04:54.511Z,98061.09
2023-03-13T03:07:22.836Z,98050.09
2023-03-13T03:09:53.185Z,98045.78
2023-03-13T03:12:21.358Z,98047.34
2023-03-13T03:14:51.170Z,98040.94
2023-03-13T03:17:19.352Z,98040.28
2023-03-13T03:19:47.629Z,98039.78
2023-03-13T03:22:16.002Z,98039.91
2023-03-13T03:24:43.991Z,98030.19
2023-03-13T03:27:12.293Z,98018.88
2023-03-13T03:29:40.628Z,98026.66
2023-03-13T03:32:11.312Z,98014.84
2023-03-13T03:34:39.716Z,98022.41
2023-03-13T03:37:07.852Z,98031.28
2023-03-13T03:39:36.792Z,98023.88
2023-03-13T03:42:06.426Z,98027.03
2023-03-13T03:44:34.983Z,98038.81
2023-03-13T03:47:03.246Z,98028.66
2023-03-13T03:49:33.192Z,98022.00
2023-03-13T03:52:01.350Z,98019.75
2023-03-13T03:54:29.642Z,98028.16
2023-03-13T03:56:58.038Z,98027.31
2023-03-13T03:59:26.513Z,98017.28
2023-03-13T04:01:54.917Z,98031.66
2023-03-13T04:04:23.443Z,98008.16
2023-03-13T04:06:54.465Z,97986.00
2023-03-13T04:09:24.849Z,97989.69
2023-03-13T04:11:53.230Z,97996.16
2023-03-13T04:14:21.380Z,97989.22
2023-03-13T04:16:49.878Z,97983.22
2023-03-13T04:19:22.328Z,97977.06
2023-03-13T04:21:51.142Z,97968.94
2023-03-13T04:24:21.052Z,97967.38
2023-03-13T04:26:52.252Z,97966.41
2023-03-13T04:29:21.773Z,97965.22
2023-03-13T04:31:50.292Z,97973.72
2023-03-13T04:34:18.757Z,97957.03
2023-03-13T04:36:47.910Z,97969.66
2023-03-13T04:39:16.051Z,97973.00
2023-03-13T04:41:45.608Z,97967.72
2023-03-13T04:44:13.919Z,97968.69
2023-03-13T04:46:42.027Z,97974.44
2023-03-13T04:49:10.358Z,97964.38
2023-03-13T04:51:39.287Z,97961.63
2023-03-13T04:54:07.397Z,97951.91
2023-03-13T04:56:43.288Z,97954.31
2023-03-13T04:59:15.431Z,97953.94
2023-03-13T05:01:44.564Z,97939.28
2023-03-13T05:04:13.906Z,97948.03
2023-03-13T05:06:42.057Z,97944.53
2023-03-13T05:09:10.483Z,97948.84
2023-03-13T05:11:40.563Z,97944.53
2023-03-13T05:14:10.933Z,97929.66
2023-03-13T05:16:41.073Z,97925.19
2023-03-13T05:19:09.665Z,97928.66
2023-03-13T05:21:39.269Z,97937.19
2023-03-13T05:24:08.237Z,97934.91
2023-03-13T05:26:38.215Z,97928.16
2023-03-13T05:29:06.454Z,97919.78
2023-03-13T05:31:34.882Z,97920.78
2023-03-13T05:34:04.701Z,97937.09
2023-03-13T05:36:32.932Z,97936.41
2023-03-13T05:39:01.760Z,97931.44
2023-03-13T05:41:30.353Z,97925.22
2023-03-13T05:43:59.140Z,97921.03
2023-03-13T05:46:27.334Z,97934.13
2023-03-13T05:48:55.845Z,97937.38
2023-03-13T05:51:25.604Z,97943.50
2023-03-13T05:53:53.748Z,97936.88
2023-03-13T05:56:21.840Z,97927.31
2023-03-13T05:58:50.363Z,97916.88
2023-03-13T06:01:18.918Z,97904.88
2023-03-13T06:03:51.022Z,97899.22
2023-03-13T06:06:19.177Z,97892.28
2023-03-13T06:08:49.218Z,97891.19
2023-03-13T06:11:17.539Z,97887.59
2023-03-13T06:13:46.154Z,97901.28
2023-03-13T06:16:14.536Z,97884.97
2023-03-13T06:18:42.773Z,97887.50
2023-03-13T06:21:10.937Z,97894.94
2023-03-13T06:23:39.574Z,97896.28
2023-03-13T06:26:10.767Z,97891.13
2023-03-13T06:28:39.196Z,97896.03
2023-03-13T06:31:10.106Z,97914.06
2023-03-13T06:33:40.468Z,97907.56
2023-03-13T06:36:09.408Z,97915.25
2023-03-13T06:38:40.421Z,97905.16
2023-03-13T06:41:08.584Z,97913.69
2023-03-13T06:43:41.146Z,97906.72
2023-03-13T06:46:09.852Z,97910.81
2023-03-13T06:48:38.230Z,97913.94
2023-03-13T06:51:07.143Z,97925.00
2023-03-13T06:53:35.558Z,97927.97
2023-03-13T06:56:04.397Z,97932.19
2023-03-13T06:58:33.178Z,97936.84
2023-03-13T07:01:08.564Z,97941.16
2023-03-13T07:03:37.490Z,97936.88
2023-03-13T07:06:07.477Z,97927.00
2023-03-13T07:08:37.608Z,97937.47
2023-03-13T07:11:08.453Z,97940.09
2023-03-13T07:13:37.367Z,97946.34
2023-03-13T07:16:09.011Z,97952.59
2023-03-13T07:18:38.521Z,97952.47
2023-03-13T07:21:07.224Z,97952.72
2023-03-13T07:23:36.937Z,97949.81
2023-03-13T07:26:07.382Z,97950.91
2023-03-13T07:28:37.709Z,97948.25
2023-03-13T07:31:09.891Z,97943.31
2023-03-13T07:33:38.227Z,97938.38
2023-03-13T07:36:07.284Z,97935.97
2023-03-13T07:38:37.976Z,97931.78
2023-03-13T07:41:09.319Z,97921.78
2023-03-13T07:43:38.314Z,97914.91
2023-03-13T07:46:10.590Z,97921.25
2023-03-13T07:48:41.795Z,97920.88
2023-03-13T07:51:13.483Z,97927.34
2023-03-13T07:53:41.905Z,97926.38
2023-03-13T07:56:15.670Z,97934.53
2023-03-13T07:58:45.119Z,97924.47
2023-03-13T08:01:18.441Z,97929.34
2023-03-13T08:03:49.360Z,97915.28
2023-03-13T08:06:19.547Z,97928.72
2023-03-13T08:08:51.780Z,97931.72
2023-03-13T08:11:21.711Z,97932.88
2023-03-13T08:13:51.156Z,97941.91
2023-03-13T08:16:22.295Z,97933.13
2023-03-13T08:18:52.074Z,97926.91
2023-03-13T08:21:22.397Z,97930.22
2023-03-13T08:23:54.379Z,97935.69
2023-03-13T08:26:24.888Z,97947.28
2023-03-13T08:28:55.289Z,97928.25
2023-03-13T08:31:27.299Z,97928.47
2023-03-13T08:33:56.163Z,97926.13
2023-03-13T08:36:27.295Z,97907.97
2023-03-13T08:38:59.428Z,97917.50
2023-03-13T08:41:30.109Z,97905.66
2023-03-13T08:43:59.489Z,97904.38
2023-03-13T08:46:32.195Z,97891.41
2023-03-13T08:49:00.641Z,97892.63
2023-03-13T08:51:30.145Z,97891.81
2023-03-13T08:53:58.794Z,97888.22
2023-03-13T08:56:31.566Z,97876.31
2023-03-13T08:59:01.150Z,97882.75
2023-03-13T09:01:32.530Z,97880.13
2023-03-13T09:04:03.991Z,97877.72
2023-03-13T09:06:33.531Z,97879.00
2023-03-13T09:09:02.358Z,97877.47
2023-03-13T09:11:31.465Z,97876.19
2023-03-13T09:14:01.024Z,97879.00
2023-03-13T09:16:34.904Z,97859.09
2023-03-13T09:19:03.481Z,97858.84
2023-03-13T09:21:34.627Z,97844.69
2023-03-13T09:24:03.352Z,97832.06
2023-03-13T09:26:31.883Z,97838.13
2023-03-13T09:29:00.198Z,97800.13
2023-03-13T09:31:31.992Z,97784.69
2023-03-13T09:34:01.048Z,97775.56
2023-03-13T09:36:29.718Z,97765.75
2023-03-13T09:39:00.044Z,97762.19
2023-03-13T09:41:34.469Z,97756.66
2023-03-13T09:44:08.377Z,97760.06
2023-03-13T09:46:45.856Z,97741.00
2023-03-13T09:49:29.965Z,97746.19
2023-03-13T09:52:06.038Z,97754.44
2023-03-13T09:54:39.679Z,97737.38
2023-03-13T09:57:15.813Z,97732.41
2023-03-13T09:59:51.467Z,97722.53
2023-03-13T10:02:28.842Z,97727.03
2023-03-13T10:05:06.650Z,97733.56
2023-03-13T10:07:35.046Z,97737.44
2023-03-13T10:10:05.673Z,97736.34
2023-03-13T10:12:45.292Z,97741.69
2023-03-13T10:15:30.680Z,97732.56
2023-03-13T10:18:03.335Z,97718.19
2023-03-13T10:20:36.943Z,97732.75
2023-03-13T10:23:12.554Z,97743.97
2023-03-13T10:25:41.594Z,97728.06
2023-03-13T10:28:13.976Z,97726.81
2023-03-13T10:30:47.150Z,97732.44
2023-03-13T10:33:24.671Z,97729.63
2023-03-13T10:36:11.938Z,97717.31
2023-03-13T10:38:51.027Z,97704.66
2023-03-13T10:41:31.066Z,97700.97
2023-03-13T10:44:04.727Z,97699.97
2023-03-13T10:46:35.445Z,97698.78
2023-03-13T10:49:14.861Z,97714.25
2023-03-13T10:51:48.665Z,97707.53
2023-03-13T10:54:23.283Z,97710.19
2023-03-13T10:56:52.107Z,97707.19
2023-03-13T10:59:26.187Z,97720.53
2023-03-13T11:02:00.242Z,97716.72
2023-03-13T11:04:34.867Z,97723.06
2023-03-13T11:07:05.595Z,97722.69
2023-03-13T11:09:37.446Z,97707.69
2023-03-13T11:12:18.971Z,97718.56
2023-03-13T11:14:48.026Z,97705.13
2023-03-13T11:17:26.279Z,97713.47
2023-03-13T11:20:05.925Z,97694.00
2023-03-13T11:22:44.267Z,97680.13
2023-03-13T11:25:23.806Z,97706.84
2023-03-13T11:28:09.749Z,97685.25
2023-03-13T11:31:06.899Z,97688.38
2023-03-13T11:33:43.786Z,97682.66
2023-03-13T11:36:21.087Z,97686.00
2023-03-13T11:38:55.484Z,97684.31
2023-03-13T11:41:43.035Z,97678.00
2023-03-13T11:44:34.253Z,97674.66
2023-03-13T11:47:16.384Z,97669.53
2023-03-13T11:50:00.583Z,97669.06
2023-03-13T11:52:53.271Z,97667.19
2023-03-13T11:55:43.211Z,97657.88
2023-03-13T11:58:25.423Z,97670.72
2023-03-13T12:00:59.545Z,97663.38
2023-03-13T12:03:37.849Z,97649.38
2023-03-13T12:06:27.394Z,97652.03
2023-03-13T12:09:06.653Z,97646.97
2023-03-13T12:11:43.884Z,97657.91
2023-03-13T12:14:16.511Z,97650.00
2023-03-13T12:16:50.602Z,97635.66
2023-03-13T12:19:25.316Z,97638.81
2023-03-13T12:21:56.074Z,97635.34
2023-03-13T12:24:31.813Z,97625.69
2023-03-13T12:27:05.398Z,97629.59
2023-03-13T12:29:45.087Z,97638.78
2023-03-13T12:32:20.213Z,97625.00
2023-03-13T12:35:02.483Z,97629.59
2023-03-13T12:37:42.046Z,97614.31
2023-03-13T12:40:23.491Z,97619.72
2023-03-13T12:42:58.857Z,97621.09
2023-03-13T12:45:29.762Z,97618.78
2023-03-13T12:48:28.418Z,97612.78
2023-03-13T12:51:09.679Z,97615.56
2023-03-13T12:54:01.282Z,97616.22
2023-03-13T12:56:49.803Z,97596.84
2023-03-13T12:59:22.270Z,97590.84
2023-03-13T13:01:56.028Z,97586.81
2023-03-13T13:04:26.525Z,97576.84
2023-03-13T13:07:02.666Z,97574.88
2023-03-13T13:09:32.172Z,97571.22
2023-03-13T13:12:07.408Z,97565.44
2023-03-13T13:15:04.064Z,97573.31
2023-03-13T13:17:43.380Z,97564.84
2023-03-13T13:20:42.732Z,97563.91
2023-03-13T13:23:48.300Z,97551.41
2023-03-13T13:26:50.868Z,97550.63
2023-03-13T13:29:56.601Z,97551.47
2023-03-13T13:32:36.683Z,97528.19
2023-03-13T13:35:07.979Z,97521.97
2023-03-13T13:37:39.078Z,97517.25
2023-03-13T13:40:28.349Z,97506.41
2023-03-13T13:42:59.150Z,97505.63
2023-03-13T13:45:32.912Z,97497.47
2023-03-13T13:48:33.129Z,97494.47
2023-03-13T13:51:34.649Z,97500.91
2023-03-13T13:54:07.873Z,97495.81
2023-03-13T13:56:47.302Z,97478.91
2023-03-13T13:59:28.804Z,97466.72
2023-03-13T14:02:21.429Z,97462.59
2023-03-13T14:04:56.895Z,97457.44
2023-03-13T14:07:34.260Z,97460.28
2023-03-13T14:10:09.093Z,97449.66
2023-03-13T14:12:39.454Z,97446.00
2023-03-13T14:15:14.627Z,97428.94
2023-03-13T14:17:45.175Z,97437.09
2023-03-13T14:20:39.030Z,97418.44
2023-03-13T14:23:09.478Z,97418.81
2023-03-13T14:25:46.941Z,97417.69
2023-03-13T14:28:23.160Z,97399.22
2023-03-13T14:30:54.180Z,97392.38
2023-03-13T14:33:23.009Z,97382.72
2023-03-13T14:35:53.120Z,97382.06
2023-03-13T14:38:23.485Z,97384.38
2023-03-13T14:40:53.364Z,97377.34
2023-03-13T14:43:32.525Z,97384.28
2023-03-13T14:46:02.422Z,97373.78
2023-03-13T14:48:33.337Z,97373.59
2023-03-13T14:51:15.878Z,97360.63
2023-03-13T14:53:58.282Z,97382.00
2023-03-13T14:56:35.202Z,97368.53
2023-03-13T14:59:16.828Z,97374.53
2023-03-13T15:01:45.298Z,97367.41
2023-03-13T15:04:13.663Z,97353.09
2023-03-13T15:06:45.816Z,97342.78
2023-03-13T15:09:24.201Z,97333.97
2023-03-13T15:12:07.503Z,97323.69
2023-03-13T15:14:41.429Z,97329.81
2023-03-13T15:17:17.739Z,97309.88
2023-03-13T15:19:50.262Z,97311.50
2023-03-13T15:22:26.298Z,97312.00
2023-03-13T15:25:05.678Z,97306.38
2023-03-13T15:27:35.109Z,97299.91
2023-03-13T15:30:04.155Z,97273.63
2023-03-13T15:32:35.879Z,97273.78
2023-03-13T15:35:23.139Z,97262.66
2023-03-13T15:37:53.031Z,97259.13
2023-03-13T15:40:22.128Z,97265.94
2023-03-13T15:42:51.087Z,97257.31
2023-03-13T15:45:21.850Z,97272.44
2023-03-13T15:47:50.243Z,97264.13
2023-03-13T15:50:25.723Z,97258.97
2023-03-13T15:53:00.792Z,97268.47
2023-03-13T15:55:30.523Z,97251.69
2023-03-13T15:57:59.462Z,97252.69
2023-03-13T16:00:35.983Z,97246.25
2023-03-13T16:03:04.242Z,97233.78
2023-03-13T16:05:32.635Z,97219.47
2023-03-13T16:08:04.488Z,97222.97
2023-03-13T16:10:34.489Z,97224.47
2023-03-13T16:13:03.688Z,97213.34
2023-03-13T16:15:33.253Z,97194.66
2023-03-13T16:18:02.858Z,97191.34
2023-03-13T16:20:36.308Z,97192.16
2023-03-13T16:23:15.154Z,97196.19
2023-03-13T16:25:44.347Z,97188.19
2023-03-13T16:28:13.889Z,97170.69
2023-03-13T16:30:43.953Z,97146.03
2023-03-13T16:33:13.626Z,97138.34
2023-03-13T16:35:56.578Z,97136.16
2023-03-13T16:38:30.385Z,97132.75
2023-03-13T16:41:00.920Z,97145.06
2023-03-13T16:43:29.503Z,97149.09
2023-03-13T16:45:58.274Z,97163.44
2023-03-13T16:48:26.724Z,97167.75
2023-03-13T16:50:55.194Z,97159.38
2023-03-13T16:53:23.905Z,97136.84
2023-03-13T16:55:55.946Z,97135.97
2023-03-13T16:58:24.285Z,97133.19
2023-03-13T17:01:05.050Z,97143.22
2023-03-13T17:03:34.881Z,97133.63
2023-03-13T17:06:03.301Z,97136.81
2023-03-13T17:08:33.397Z,97153.44
2023-03-13T17:11:04.877Z,97166.91
2023-03-13T17:13:33.314Z,97163.59
2023-03-13T17:16:01.728Z,97147.81
2023-03-13T17:18:31.789Z,97154.78
2023-03-13T17:21:02.589Z,97151.97
2023-03-13T17:23:32.216Z,97162.44
2023-03-13T17:26:02.037Z,97160.59
2023-03-13T17:28:32.494Z,97166.59
2023-03-13T17:31:00.665Z,97152.47
2023-03-13T17:33:30.191Z,97156.78
2023-03-13T17:35:59.125Z,97157.88
2023-03-13T17:38:28.001Z,97163.81
2023-03-13T17:40:56.417Z,97149.22
2023-03-13T17:43:24.830Z,97151.19
2023-03-13T17:45:55.702Z,97154.31
2023-03-13T17:48:26.055Z,97156.81
2023-03-13T17:50:55.433Z,97160.91
2023-03-13T17:53:25.271Z,97166.69
2023-03-13T17:55:53.453Z,97168.72
2023-03-13T17:58:21.580Z,97160.72
2023-03-13T18:00:51.232Z,97150.56
2023-03-13T18:03:21.525Z,97148.91
2023-03-13T18:05:50.023Z,97156.31
2023-03-13T18:08:18.742Z,97154.78
2023-03-13T18:10:49.281Z,97142.88
2023-03-13T18:13:18.444Z,97166.78
2023-03-13T18:15:47.336Z,97162.75
2023-03-13T18:18:19.199Z,97141.69
2023-03-13T18:20:51.852Z,97127.41
2023-03-13T18:23:20.239Z,97133.28
2023-03-13T18:25:48.847Z,97111.09
2023-03-13T18:28:17.193Z,97093.69
2023-03-13T18:30:45.407Z,97103.31
2023-03-13T18:33:13.772Z,97083.53
2023-03-13T18:35:41.915Z,97096.28
2023-03-13T18:38:14.077Z,97119.22
2023-03-13T18:40:42.554Z,97122.16
2023-03-13T18:43:11.025Z,97116.75
2023-03-13T18:45:39.533Z,97116.69
2023-03-13T18:48:11.853Z,97111.88
2023-03-13T18:50:41.615Z,97104.25
2023-03-13T18:53:10.972Z,97128.13
2023-03-13T18:55:40.950Z,97137.25
2023-03-13T18:58:11.825Z,97161.13
2023-03-13T19:00:40.350Z,97188.78
2023-03-13T19:03:12.127Z,97192.97
2023-03-13T19:05:41.278Z,97198.88
2023-03-13T19:08:12.958Z,97167.09
2023-03-13T19:10:45.343Z,97179.94
2023-03-13T19:13:13.828Z,97182.31
2023-03-13T19:15:42.283Z,97168.41
2023-03-13T19:18:13.448Z,97161.97
2023-03-13T19:20:43.574Z,97161.41
2023-03-13T19:23:12.356Z,97149.53
2023-03-13T19:25:42.920Z,97138.09
2023-03-13T19:28:13.547Z,97146.34
2023-03-13T19:30:44.636Z,97162.56
2023-03-13T19:33:13.381Z,97153.31
2023-03-13T19:35:41.909Z,97177.81
2023-03-13T19:38:13.382Z,97180.41
2023-03-13T19:40:43.891Z,97186.25
2023-03-13T19:43:16.350Z,97159.34
2023-03-13T19:45:46.576Z,97119.03
2023-03-13T19:48:14.940Z,97111.22
2023-03-13T19:50:43.283Z,97114.63
2023-03-13T19:53:11.767Z,97118.97
2023-03-13T19:55:40.495Z,97129.72
2023-03-13T19:58:09.014Z,97119.25
2023-03-13T20:00:38.996Z,97092.16
2023-03-13T20:03:09.900Z,97093.41
2023-03-13T20:05:39.820Z,97056.97
2023-03-13T20:08:08.283Z,97096.75
2023-03-13T20:10:36.706Z,97136.94
2023-03-13T20:13:05.082Z,97118.38
2023-03-13T20:15:34.065Z,97108.28
2023-03-13T20:18:09.116Z,97095.66
2023-03-13T20:20:37.506Z,97084.44
2023-03-13T20:23:05.910Z,97056.28
2023-03-13T20:25:34.380Z,97068.69
2023-03-13T20:28:03.310Z,97079.66
2023-03-13T20:30:33.190Z,97077.31
2023-03-13T20:33:01.634Z,97093.75
2023-03-13T20:35:32.141Z,97086.69
2023-03-13T20:38:05.165Z,97070.63
2023-03-13T20:40:36.780Z,97065.41
2023-03-13T20:43:05.409Z,97076.47
2023-03-13T20:45:36.351Z,97091.66
2023-03-13T20:48:06.473Z,97085.22
2023-03-13T20:50:36.475Z,97092.06
2023-03-13T20:53:05.250Z,97104.03
2023-03-13T20:55:34.027Z,97102.53
2023-03-13T20:58:02.435Z,97100.91
2023-03-13T21:00:31.722Z,97099.41
2023-03-13T21:02:59.851Z,97091.28
2023-03-13T21:05:31.079Z,97075.22
2023-03-13T21:08:02.592Z,97087.19
2023-03-13T21:10:30.756Z,97075.75
2023-03-13T21:12:59.439Z,97062.97
2023-03-13T21:15:27.810Z,97068.19
2023-03-13T21:17:56.620Z,97066.25
2023-03-13T21:20:26.071Z,97046.47
2023-03-13T21:22:54.711Z,97035.16
2023-03-13T21:25:25.349Z,97047.25
2023-03-13T21:27:53.623Z,97053.88
2023-03-13T21:30:22.809Z,97043.09
2023-03-13T21:32:59.072Z,97036.88
2023-03-13T21:35:27.418Z,97039.94
2023-03-13T21:37:56.707Z,97033.84
2023-03-13T21:40:26.723Z,97033.28
2023-03-13T21:42:54.978Z,97037.16
2023-03-13T21:45:23.833Z,97017.38
2023-03-13T21:47:52.656Z,97016.81
2023-03-13T21:50:21.089Z,97018.84
2023-03-13T21:52:52.291Z,97009.69
2023-03-13T21:55:20.603Z,97020.53
2023-03-13T21:57:50.391Z,97018.63
2023-03-13T22:00:19.329Z,97028.91
2023-03-13T22:02:47.633Z,97039.75
2023-03-13T22:05:16.196Z,97042.41
2023-03-13T22:07:45.447Z,97044.97
2023-03-13T22:10:13.923Z,97057.63
2023-03-13T22:12:42.119Z,97062.41
2023-03-13T22:15:13.404Z,97057.94
2023-03-13T22:17:41.548Z,97048.84
2023-03-13T22:20:12.628Z,97052.47
2023-03-13T22:22:42.398Z,97063.16
2023-03-13T22:25:11.598Z,97062.53
2023-03-13T22:27:48.985Z,97048.75
2023-03-13T22:30:18.842Z,97058.50
2023-03-13T22:32:47.043Z,97045.34
2023-03-13T22:35:16.670Z,97040.19
2023-03-13T22:37:45.703Z,97028.25
2023-03-13T22:40:15.520Z,97030.44
2023-03-13T22:42:43.725Z,97035.06
2023-03-13T22:45:12.897Z,97059.78
2023-03-13T22:47:42.939Z,97071.03
2023-03-13T22:50:12.447Z,97078.88
2023-03-13T22:52:41.355Z,97105.06
2023-03-13T22:55:10.490Z,97089.41
2023-03-13T22:57:38.846Z,97073.25
2023-03-13T23:00:09.257Z,97085.41
2023-03-13T23:02:38.836Z,97094.16
2023-03-13T23:05:09.904Z,97083.59
2023-03-13T23:07:41.427Z,97076.72
2023-03-13T23:10:12.037Z,97055.09
2023-03-13T23:12:43.532Z,97045.97
2023-03-13T23:15:13.270Z,97037.03
2023-03-13T23:17:46.991Z,97029.84
2023-03-13T23:20:17.051Z,97020.47
2023-03-13T23:22:50.202Z,97007.22
2023-03-13T23:25:20.413Z,97008.84
2023-03-13T23:27:48.914Z,97006.19
2023-03-13T23:30:18.852Z,96985.63
2023-03-13T23:32:48.459Z,96976.16
2023-03-13T23:35:19.184Z,96979.19
2023-03-13T23:37:53.921Z,96984.25
2023-03-13T23:40:23.502Z,96994.69
2023-03-13T23:42:53.272Z,97003.69
2023-03-13T23:45:23.318Z,97013.00
2023-03-13T23:47:53.900Z,97018.06
2023-03-13T23:50:24.757Z,97031.53
2023-03-13T23:52:52.968Z,97037.19
2023-03-13T23:55:21.514Z,97041.72
2023-03-13T23:57:50.710Z,97054.44
